Time;durP1;ratioP1;P1;durP2;ratioP2;P2;SDS_P1;SDS_P2;PMS_P1;PMS_P2;Temp;Humidity;BMP_temperature;BMP_pressure;BME280_temperature;BME280_humidity;BME280_pressure;Samples;Min_cycle;Max_cycle;Signal;HPM_P1;HPM_P2
2022/03/11 00:01:10;;;;;;;7.03;5.40;;;12.00;62.40;;;;;;5087519;28;20043;-81
2022/03/11 00:03:36;;;;;;;8.48;6.50;;;12.00;62.40;;;;;;5087451;28;20080;-80
2022/03/11 00:06:02;;;;;;;6.97;6.28;;;12.00;62.40;;;;;;5086818;28;20452;-80
2022/03/11 00:08:28;;;;;;;7.32;6.07;;;12.00;62.40;;;;;;5087034;28;20043;-80
2022/03/11 00:10:54;;;;;;;6.15;5.55;;;12.00;62.40;;;;;;5068924;28;20486;-79
2022/03/11 01:38:43;;;;;;;9.20;8.07;;;12.10;62.80;;;;;;5069178;28;20066;-81
2022/03/11 01:41:10;;;;;;;8.80;7.90;;;12.10;62.60;;;;;;5072031;28;20028;-81
2022/03/11 01:43:54;;;;;;;8.30;7.50;;;12.10;62.70;;;;;;5089473;28;20036;-80
2022/03/11 01:46:20;;;;;;;8.52;7.63;;;12.10;63.30;;;;;;5071980;28;20089;-81
2022/03/11 01:48:46;;;;;;;8.43;7.53;;;12.10;62.80;;;;;;5089299;28;20088;-81
2022/03/11 01:51:12;;;;;;;9.32;8.02;;;12.10;62.80;;;;;;5090338;28;20028;-80
2022/03/11 01:53:38;;;;;;;8.13;7.32;;;12.10;62.80;;;;;;5071600;28;20304;-81
2022/03/11 01:56:05;;;;;;;8.23;7.22;;;12.10;62.80;;;;;;5089853;28;20021;-81
2022/03/11 01:58:32;;;;;;;9.15;7.50;;;12.10;62.80;;;;;;5089109;28;20040;-80
2022/03/11 02:01:03;;;;;;;8.27;7.35;;;12.10;62.80;;;;;;5089604;28;20058;-79
2022/03/11 02:03:29;;;;;;;9.23;7.65;;;12.10;62.80;;;;;;5054882;28;20081;-79
2022/03/11 02:05:56;;;;;;;8.13;7.32;;;12.20;63.00;;;;;;5071995;28;20139;-79
2022/03/11 02:08:22;;;;;;;8.55;7.75;;;12.20;63.00;;;;;;5089308;28;20024;-80
2022/03/11 02:10:48;;;;;;;8.70;7.78;;;12.20;63.00;;;;;;5089655;28;20509;-80
2022/03/11 02:13:14;;;;;;;7.43;6.72;;;12.20;62.90;;;;;;5089634;28;20039;-81
2022/03/11 02:15:40;;;;;;;8.05;7.15;;;12.20;62.90;;;;;;5089440;28;20453;-80
2022/03/11 02:18:06;;;;;;;9.65;8.05;;;12.20;63.00;;;;;;5089346;28;20068;-80
2022/03/11 02:20:32;;;;;;;7.60;6.90;;;12.20;63.00;;;;;;5089271;28;20040;-81
2022/03/11 02:22:58;;;;;;;8.52;7.72;;;12.20;63.00;;;;;;5054466;28;20075;-80
2022/03/11 02:25:24;;;;;;;7.90;7.10;;;12.20;63.50;;;;;;5089052;28;20024;-81
2022/03/11 02:27:51;;;;;;;8.38;7.50;;;12.20;63.00;;;;;;5071462;28;20391;-80
2022/03/11 02:30:20;;;;;;;8.70;7.47;;;12.20;63.00;;;;;;5070916;28;20126;-80
2022/03/11 02:32:47;;;;;;;8.18;6.65;;;12.20;63.00;;;;;;5070833;28;20122;-81
2022/03/11 02:35:14;;;;;;;8.52;7.72;;;12.20;63.00;;;;;;5070936;28;20032;-80
2022/03/11 02:37:40;;;;;;;9.23;8.32;;;12.20;63.00;;;;;;5089445;28;20040;-80
2022/03/11 02:40:07;;;;;;;8.30;7.40;;;12.20;63.10;;;;;;5088493;28;20376;-80
2022/03/11 02:42:33;;;;;;;9.23;8.25;;;12.20;63.10;;;;;;5070623;28;20032;-80
2022/03/11 02:45:00;;;;;;;8.93;6.65;;;12.10;63.00;;;;;;5071091;28;20096;-79
2022/03/11 02:47:27;;;;;;;7.95;7.15;;;12.10;63.00;;;;;;5090509;28;20386;-79
2022/03/11 02:49:54;;;;;;;8.77;7.75;;;12.10;63.00;;;;;;5091809;28;20365;-80
2022/03/11 02:52:21;;;;;;;7.22;6.60;;;12.10;63.00;;;;;;5074011;28;20162;-80
2022/03/11 02:54:48;;;;;;;8.10;7.35;;;12.10;63.10;;;;;;5073869;28;20066;-80
2022/03/11 02:57:15;;;;;;;8.77;7.72;;;12.10;63.10;;;;;;5092147;28;20622;-79
2022/03/11 02:59:45;;;;;;;9.45;8.10;;;12.10;63.10;;;;;;5092403;28;20387;-79
2022/03/11 03:02:12;;;;;;;7.72;6.97;;;12.10;63.10;;;;;;5073990;28;20110;-80
2022/03/11 03:04:38;;;;;;;9.13;7.03;;;12.10;63.10;;;;;;5092006;28;20039;-79
2022/03/11 03:07:05;;;;;;;9.30;7.30;;;12.10;63.10;;;;;;5073910;28;20030;-80
2022/03/11 03:09:31;;;;;;;9.00;7.45;;;12.10;63.10;;;;;;5073945;28;20191;-80
2022/03/11 03:11:57;;;;;;;8.80;6.90;;;12.10;63.20;;;;;;5091611;28;20479;-80
2022/03/11 03:14:23;;;;;;;7.13;6.40;;;12.10;63.20;;;;;;5073649;28;20028;-80
2022/03/11 03:16:48;;;;;;;7.70;6.95;;;12.10;63.20;;;;;;5091676;28;20553;-79
2022/03/11 03:19:14;;;;;;;7.30;6.65;;;12.10;63.20;;;;;;5091696;28;20036;-80
2022/03/11 03:21:40;;;;;;;7.95;6.30;;;12.10;63.20;;;;;;5091335;28;20117;-79
2022/03/11 03:24:07;;;;;;;8.02;7.22;;;12.10;63.20;;;;;;5040097;28;20028;-79
2022/03/11 03:26:33;;;;;;;7.05;5.78;;;12.10;63.20;;;;;;5073153;28;20111;-82
2022/03/11 03:28:59;;;;;;;6.40;5.80;;;12.10;63.20;;;;;;5091592;28;20378;-82
2022/03/11 03:31:25;;;;;;;7.30;6.60;;;12.10;63.20;;;;;;5056695;28;20020;-82
2022/03/11 03:33:51;;;;;;;6.78;6.07;;;12.10;63.20;;;;;;5091152;28;20036;-82
2022/03/11 03:36:17;;;;;;;7.35;6.43;;;12.10;63.20;;;;;;5092192;28;20441;-81
2022/03/11 03:38:43;;;;;;;7.15;6.10;;;12.10;63.20;;;;;;5092990;28;20046;-80
2022/03/11 03:41:09;;;;;;;7.40;6.28;;;12.10;63.20;;;;;;5093445;28;20462;-80
2022/03/11 03:43:35;;;;;;;6.68;6.00;;;12.10;63.20;;;;;;5058537;28;20032;-80
2022/03/11 03:46:01;;;;;;;7.25;6.55;;;12.10;63.20;;;;;;5058113;28;20042;-79
2022/03/11 03:48:27;;;;;;;7.78;7.07;;;12.10;63.20;;;;;;5092317;28;20602;-80
2022/03/11 03:50:53;;;;;;;7.97;5.60;;;12.10;63.20;;;;;;5091916;28;20281;-79
2022/03/11 03:53:19;;;;;;;6.90;6.18;;;12.10;63.20;;;;;;5091434;28;20085;-81
2022/03/11 03:55:45;;;;;;;6.57;5.97;;;12.10;63.20;;;;;;5091356;28;20055;-80
2022/03/11 03:58:11;;;;;;;7.38;6.68;;;12.10;63.20;;;;;;5091253;28;20047;-81
2022/03/11 04:00:36;;;;;;;6.20;5.60;;;12.10;63.20;;;;;;5056476;28;20085;-81
2022/03/11 04:03:02;;;;;;;5.57;4.97;;;12.10;63.20;;;;;;5091065;28;20118;-81
2022/03/11 04:05:28;;;;;;;8.48;5.93;;;12.10;63.10;;;;;;5091075;28;20394;-80
2022/03/11 04:07:54;;;;;;;6.22;5.63;;;12.20;63.30;;;;;;5090991;28;20032;-80
2022/03/11 04:10:20;;;;;;;7.20;6.47;;;12.10;63.10;;;;;;5090536;28;20058;-80
2022/03/11 04:12:46;;;;;;;6.85;6.00;;;12.10;63.10;;;;;;5090712;28;20055;-80
2022/03/11 04:15:13;;;;;;;6.63;5.97;;;12.20;63.30;;;;;;5056049;28;20026;-80
2022/03/11 04:17:39;;;;;;;6.32;5.75;;;12.10;63.10;;;;;;5072534;28;20097;-79
2022/03/11 04:20:06;;;;;;;6.50;5.78;;;12.10;63.10;;;;;;5056004;28;20391;-79
2022/03/11 04:22:32;;;;;;;7.22;5.65;;;12.10;63.10;;;;;;5090475;28;20499;-79
2022/03/11 04:24:58;;;;;;;6.97;5.97;;;12.10;63.10;;;;;;5072402;28;20028;-79
2022/03/11 04:27:24;;;;;;;6.78;6.18;;;12.10;63.10;;;;;;5090498;28;20285;-79
2022/03/11 04:29:50;;;;;;;6.45;5.78;;;12.10;63.20;;;;;;5090416;28;20597;-80
2022/03/11 04:32:18;;;;;;;7.70;5.82;;;12.10;63.20;;;;;;5090546;28;20024;-80
2022/03/11 04:34:47;;;;;;;6.47;5.65;;;12.10;63.20;;;;;;5073058;28;20093;-80
2022/03/11 04:37:13;;;;;;;6.30;5.30;;;12.10;63.20;;;;;;5090815;28;20423;-80
2022/03/11 04:39:39;;;;;;;6.40;5.80;;;12.00;63.10;;;;;;5071663;28;20238;-80
2022/03/11 04:42:09;;;;;;;7.38;6.25;;;12.00;63.10;;;;;;5090945;28;20028;-80
2022/03/11 04:44:35;;;;;;;6.32;5.28;;;12.00;63.10;;;;;;5072705;28;20120;-80
2022/03/11 04:47:01;;;;;;;6.57;5.88;;;12.00;63.70;;;;;;5090546;28;20092;-80
2022/03/11 04:49:27;;;;;;;5.90;5.30;;;11.90;63.00;;;;;;5072481;28;20028;-79
2022/03/11 04:51:53;;;;;;;6.68;5.75;;;11.90;63.00;;;;;;5090534;28;20078;-81
2022/03/11 04:54:19;;;;;;;6.60;5.28;;;11.90;63.00;;;;;;5090370;28;20085;-80
2022/03/11 04:56:45;;;;;;;6.60;6.00;;;11.90;63.10;;;;;;5090458;28;20055;-81
2022/03/11 04:59:11;;;;;;;5.57;4.80;;;11.90;63.10;;;;;;5090259;28;20131;-80
2022/03/11 05:01:36;;;;;;;6.47;4.80;;;11.90;63.10;;;;;;5090279;28;20039;-80
2022/03/11 05:04:02;;;;;;;5.65;5.05;;;11.90;63.20;;;;;;5090414;28;20574;-81
2022/03/11 05:06:28;;;;;;;5.75;5.25;;;11.90;63.70;;;;;;5072558;28;20072;-81
2022/03/11 05:08:54;;;;;;;7.47;6.30;;;11.90;63.20;;;;;;5090611;28;20028;-81
2022/03/11 05:11:20;;;;;;;6.82;5.10;;;11.90;63.20;;;;;;5090624;28;20414;-80
2022/03/11 05:13:46;;;;;;;6.20;5.40;;;11.80;63.60;;;;;;5090335;28;20036;-81
2022/03/11 05:16:12;;;;;;;6.85;4.78;;;11.80;63.10;;;;;;5090556;28;20024;-81
2022/03/11 05:18:38;;;;;;;5.35;4.85;;;11.80;63.10;;;;;;5071966;28;20483;-82
2022/03/11 05:21:04;;;;;;;5.43;4.70;;;11.80;63.10;;;;;;5072192;28;20032;-81
2022/03/11 05:23:30;;;;;;;6.57;5.25;;;11.80;63.20;;;;;;5090458;28;20035;-83
2022/03/11 05:25:56;;;;;;;6.75;5.00;;;11.70;63.50;;;;;;5093888;28;20429;-81
2022/03/11 05:28:25;;;;;;;5.70;5.15;;;11.70;63.00;;;;;;5093818;28;20035;-84
2022/03/11 05:30:51;;;;;;;6.30;5.63;;;11.70;63.10;;;;;;5059281;28;20032;-81
2022/03/11 05:33:19;;;;;;;6.40;5.07;;;11.60;62.90;;;;;;5094309;28;20106;-82
2022/03/11 05:35:45;;;;;;;5.72;4.95;;;11.60;62.90;;;;;;5093728;28;20123;-82
2022/03/11 05:38:11;;;;;;;7.43;5.25;;;11.60;63.00;;;;;;5093338;28;20387;-82
2022/03/11 05:40:37;;;;;;;6.75;5.72;;;11.60;63.00;;;;;;5093434;28;20051;-82
2022/03/11 05:43:03;;;;;;;5.63;5.03;;;11.60;63.00;;;;;;5075505;28;20039;-82
2022/03/11 05:45:29;;;;;;;7.25;5.28;;;11.60;63.00;;;;;;5075840;28;20528;-82
2022/03/11 05:47:55;;;;;;;5.68;5.15;;;11.60;63.10;;;;;;5069901;28;20037;-82
2022/03/11 05:50:21;;;;;;;6.82;5.30;;;11.60;63.10;;;;;;5051806;28;20031;-82
2022/03/11 05:52:49;;;;;;;5.57;4.97;;;11.60;63.00;;;;;;5051769;28;20119;-82
2022/03/11 05:55:15;;;;;;;5.97;4.88;;;11.60;63.10;;;;;;5051835;28;20029;-82
2022/03/11 05:57:41;;;;;;;5.20;4.70;;;11.60;63.10;;;;;;5071837;28;20109;-81
2022/03/11 06:00:07;;;;;;;5.68;5.13;;;11.60;63.10;;;;;;5089373;28;20043;-81
2022/03/11 06:02:39;;;;;;;6.68;5.45;;;11.50;62.90;;;;;;5089374;28;20387;-81
2022/03/11 06:05:06;;;;;;;6.03;5.07;;;11.50;62.90;;;;;;5071451;28;20332;-81
2022/03/11 06:07:32;;;;;;;7.15;5.10;;;11.60;63.10;;;;;;5071511;28;20047;-80
2022/03/11 06:09:57;;;;;;;5.07;4.40;;;11.50;62.90;;;;;;5089200;28;20434;-83
2022/03/11 06:12:24;;;;;;;6.97;5.10;;;11.50;62.90;;;;;;5071788;28;20093;-82
2022/03/11 06:14:49;;;;;;;6.03;4.82;;;11.50;62.90;;;;;;5090381;28;20475;-82
2022/03/11 06:17:15;;;;;;;5.80;4.97;;;11.50;63.00;;;;;;5072256;28;20114;-85
2022/03/11 06:19:41;;;;;;;6.43;5.05;;;11.50;62.90;;;;;;5070841;28;20055;-81
2022/03/11 06:22:07;;;;;;;5.35;4.85;;;11.50;63.00;;;;;;5089107;28;20032;-84
2022/03/11 06:24:36;;;;;;;6.55;5.25;;;11.50;63.00;;;;;;5089825;28;20032;-80
2022/03/11 06:27:02;;;;;;;6.97;4.93;;;11.50;63.00;;;;;;5071299;28;20032;-82
2022/03/11 06:29:28;;;;;;;5.55;4.97;;;11.50;63.00;;;;;;5089749;28;20054;-83
2022/03/11 06:31:54;;;;;;;5.93;5.00;;;11.50;63.00;;;;;;5070164;28;20494;-80
2022/03/11 06:34:20;;;;;;;5.88;4.65;;;11.50;63.00;;;;;;5070572;28;20028;-80
2022/03/11 06:36:46;;;;;;;6.40;5.03;;;11.50;63.50;;;;;;5088468;28;20024;-81
2022/03/11 06:39:13;;;;;;;5.22;4.72;;;11.50;63.00;;;;;;5066776;28;20040;-77
2022/03/11 06:41:42;;;;;;;6.15;4.40;;;11.50;62.90;;;;;;5051623;23;20504;-77
2022/03/11 06:44:08;;;;;;;5.43;4.93;;;11.50;62.90;;;;;;5034080;28;20032;-77
2022/03/11 06:46:34;;;;;;;7.03;4.80;;;11.50;62.90;;;;;;5054148;28;20029;-79
2022/03/11 06:49:03;;;;;;;5.25;4.72;;;11.60;63.00;;;;;;5052233;28;20167;-78
2022/03/11 06:51:29;;;;;;;6.63;5.53;;;11.60;63.00;;;;;;5049631;28;20036;-77
2022/03/11 06:53:55;;;;;;;8.90;5.25;;;11.60;63.00;;;;;;5036191;28;20057;-77
2022/03/11 06:56:21;;;;;;;5.22;4.63;;;11.60;63.00;;;;;;5029501;28;20351;-77
2022/03/11 06:58:47;;;;;;;6.93;4.78;;;11.60;63.10;;;;;;5020317;28;20033;-77
2022/03/11 07:01:14;;;;;;;5.25;4.32;;;11.70;63.50;;;;;;5044935;28;20018;-78
2022/03/11 07:03:40;;;;;;;6.13;4.65;;;11.70;64.00;;;;;;5044562;28;20029;-78
2022/03/11 07:06:06;;;;;;;5.00;4.50;;;11.80;64.60;;;;;;5017262;28;20536;-78
2022/03/11 07:08:32;;;;;;;8.10;5.22;;;11.80;64.80;;;;;;5039846;28;20037;-78
2022/03/11 07:10:59;;;;;;;7.75;4.40;;;11.90;65.00;;;;;;5028815;28;20021;-78
2022/03/11 07:13:24;;;;;;;6.65;4.68;;;11.90;65.10;;;;;;5029651;28;20076;-80
2022/03/11 07:15:50;;;;;;;6.85;4.53;;;11.90;65.00;;;;;;5045901;28;20436;-77
2022/03/11 07:18:17;;;;;;;5.13;4.22;;;11.90;65.00;;;;;;5046980;28;20369;-78
2022/03/11 07:20:42;;;;;;;8.27;4.95;;;12.00;65.20;;;;;;5048933;28;20117;-77
2022/03/11 07:23:08;;;;;;;7.43;5.03;;;12.00;65.20;;;;;;5017340;28;20132;-77
2022/03/11 07:25:36;;;;;;;7.55;4.57;;;12.00;65.20;;;;;;5028717;28;20117;-78
2022/03/11 07:28:02;;;;;;;6.35;4.60;;;12.00;65.10;;;;;;5016953;28;20056;-77
2022/03/11 07:30:28;;;;;;;6.05;4.72;;;12.00;65.10;;;;;;5026213;28;20419;-78
2022/03/11 07:32:54;;;;;;;8.05;4.72;;;12.00;65.00;;;;;;5027956;28;20025;-77
2022/03/11 07:35:20;;;;;;;6.30;4.72;;;12.00;65.00;;;;;;5029694;28;20488;-78
2022/03/11 07:37:50;;;;;;;5.78;4.75;;;12.10;65.10;;;;;;5030744;28;20048;-79
2022/03/11 07:40:18;;;;;;;7.45;5.03;;;12.10;65.00;;;;;;4997393;28;20030;-80
2022/03/11 07:42:44;;;;;;;6.85;5.05;;;12.10;65.00;;;;;;5031331;28;20099;-79
2022/03/11 07:45:13;;;;;;;7.50;4.85;;;12.20;65.10;;;;;;5013407;28;20033;-80
2022/03/11 07:47:43;;;;;;;6.45;4.80;;;12.20;65.00;;;;;;5029924;28;20039;-79
2022/03/11 07:50:10;;;;;;;5.25;4.75;;;12.30;65.00;;;;;;5049893;28;20113;-80
2022/03/11 07:52:38;;;;;;;7.05;4.93;;;12.30;64.90;;;;;;5049896;28;20081;-80
2022/03/11 07:55:09;;;;;;;6.07;4.93;;;12.40;64.90;;;;;;5051464;28;20013;-81
2022/03/11 07:57:39;;;;;;;7.53;5.40;;;12.40;64.90;;;;;;5052157;28;20029;-80
2022/03/11 08:00:09;;;;;;;5.72;4.65;;;12.40;64.80;;;;;;5052605;28;20021;-80
2022/03/11 08:02:41;;;;;;;7.75;5.00;;;12.50;64.90;;;;;;5036321;28;20120;-79
2022/03/11 08:05:14;;;;;;;5.68;5.15;;;12.50;64.80;;;;;;5052502;28;20034;-80
2022/03/11 08:07:47;;;;;;;6.10;5.25;;;12.50;64.80;;;;;;5052804;28;20048;-79
2022/03/11 08:10:13;;;;;;;10.60;7.47;;;12.50;64.80;;;;;;5044249;28;20034;-81
2022/03/11 08:12:40;;;;;;;6.32;5.45;;;12.50;64.80;;;;;;5012909;28;20037;-81
2022/03/11 08:15:07;;;;;;;10.65;5.68;;;12.50;64.80;;;;;;5012367;28;20037;-79
2022/03/11 08:17:33;;;;;;;5.65;4.68;;;12.60;64.90;;;;;;5010328;28;20021;-81
2022/03/11 08:19:59;;;;;;;6.65;4.70;;;12.60;64.80;;;;;;5028225;28;20507;-79
2022/03/11 08:22:26;;;;;;;7.00;4.93;;;12.70;64.90;;;;;;5028849;28;20057;-80
2022/03/11 08:24:52;;;;;;;5.75;5.22;;;12.80;65.00;;;;;;5047574;28;20036;-82
2022/03/11 08:27:18;;;;;;;5.13;4.40;;;12.90;64.90;;;;;;5027739;28;20026;-82
2022/03/11 08:29:44;;;;;;;6.80;5.10;;;13.00;64.90;;;;;;5027743;28;20155;-86
2022/03/11 08:32:10;;;;;;;6.18;4.55;;;13.00;64.70;;;;;;5010036;28;20072;-82
2022/03/11 08:34:36;;;;;;;5.70;4.50;;;13.20;64.80;;;;;;5010352;28;20458;-80
2022/03/11 08:37:02;;;;;;;6.10;5.13;;;13.20;64.70;;;;;;5030556;28;20032;-79
2022/03/11 08:39:27;;;;;;;7.60;4.68;;;13.30;64.60;;;;;;5013828;28;20440;-81
2022/03/11 08:41:53;;;;;;;5.07;4.45;;;13.40;64.60;;;;;;5027275;28;20484;-80
2022/03/11 08:44:22;;;;;;;4.60;4.10;;;13.60;64.80;;;;;;5027207;28;20278;-78
2022/03/11 08:46:48;;;;;;;7.18;4.65;;;13.60;64.60;;;;;;5026987;28;20029;-84
2022/03/11 08:49:16;;;;;;;5.05;4.22;;;13.70;64.50;;;;;;5009278;28;20604;-79
2022/03/11 08:51:43;;;;;;;4.38;3.97;;;13.80;64.50;;;;;;5027628;28;20308;-83
2022/03/11 08:54:10;;;;;;;6.28;4.22;;;13.80;64.40;;;;;;5027035;28;20026;-81
2022/03/11 08:56:36;;;;;;;7.35;4.30;;;13.90;64.50;;;;;;5027550;28;20069;-80
2022/03/11 08:59:02;;;;;;;5.65;4.20;;;13.90;64.50;;;;;;5010640;28;20037;-79
2022/03/11 09:01:28;;;;;;;4.70;4.30;;;13.90;64.50;;;;;;5031957;28;20026;-79
2022/03/11 09:03:54;;;;;;;5.55;4.20;;;13.90;64.60;;;;;;5031709;28;20468;-78
2022/03/11 09:06:20;;;;;;;5.47;4.03;;;13.90;64.60;;;;;;5031626;28;20029;-82
2022/03/11 09:08:46;;;;;;;5.15;3.97;;;13.90;64.60;;;;;;5031609;28;20026;-84
2022/03/11 09:11:13;;;;;;;6.55;4.45;;;13.90;64.70;;;;;;5031474;28;20056;-81
2022/03/11 09:13:39;;;;;;;5.35;3.83;;;13.90;65.20;;;;;;5013731;28;20394;-79
2022/03/11 09:16:06;;;;;;;4.32;3.80;;;14.00;64.70;;;;;;5031718;28;20512;-81
2022/03/11 09:18:33;;;;;;;5.28;3.83;;;14.00;64.60;;;;;;5031350;28;20068;-80
2022/03/11 09:21:01;;;;;;;4.70;4.15;;;14.10;64.70;;;;;;5013688;28;20030;-84
2022/03/11 09:23:27;;;;;;;6.13;3.95;;;14.10;64.60;;;;;;5013351;28;20072;-79
2022/03/11 09:25:54;;;;;;;3.90;3.35;;;14.20;64.60;;;;;;5014198;28;20033;-80
2022/03/11 09:28:20;;;;;;;5.10;3.88;;;14.30;64.50;;;;;;5013491;28;20423;-82
2022/03/11 09:30:46;;;;;;;5.10;4.55;;;14.40;64.50;;;;;;5031657;28;20033;-84
2022/03/11 09:33:12;;;;;;;5.50;3.92;;;14.60;64.60;;;;;;5031425;28;20466;-79
2022/03/11 09:35:38;;;;;;;4.97;3.40;;;14.60;64.50;;;;;;5013647;28;20487;-80
2022/03/11 09:38:04;;;;;;;5.53;4.25;;;14.70;64.50;;;;;;5031102;28;20076;-84
2022/03/11 09:40:33;;;;;;;4.03;3.42;;;14.70;64.40;;;;;;5030845;28;20056;-82
2022/03/11 09:43:00;;;;;;;5.28;3.30;;;14.80;64.50;;;;;;5031069;28;20049;-79
2022/03/11 09:45:27;;;;;;;4.15;3.50;;;14.80;64.40;;;;;;5046244;28;20037;-82
2022/03/11 09:47:54;;;;;;;3.78;3.38;;;14.80;64.40;;;;;;5033202;28;20025;-80
2022/03/11 09:50:20;;;;;;;3.78;2.83;;;14.80;64.40;;;;;;5050247;28;20033;-80
2022/03/11 09:52:48;;;;;;;3.45;2.85;;;14.80;65.00;;;;;;5050551;28;20479;-77
2022/03/11 09:55:16;;;;;;;3.80;2.80;;;14.80;64.40;;;;;;5050551;28;20372;-83
2022/03/11 09:57:42;;;;;;;3.15;2.85;;;14.80;64.40;;;;;;5049238;28;20032;-81
2022/03/11 10:00:10;;;;;;;4.72;3.63;;;14.80;64.30;;;;;;5030615;28;20537;-78
2022/03/11 10:02:47;;;;;;;5.07;2.85;;;14.80;64.40;;;;;;5013280;28;20022;-81
2022/03/11 10:05:15;;;;;;;3.83;3.17;;;14.80;64.50;;;;;;5030829;28;20430;-79
2022/03/11 10:07:41;;;;;;;3.83;3.05;;;14.70;64.40;;;;;;5045851;28;20025;-78
2022/03/11 10:10:28;;;;;;;3.10;2.65;;;14.60;64.40;;;;;;5012509;28;20033;-83
2022/03/11 10:12:55;;;;;;;2.95;2.75;;;14.60;64.50;;;;;;4998817;28;20044;-79
2022/03/11 10:15:27;;;;;;;2.85;2.65;;;14.50;64.40;;;;;;5011927;28;20041;-78
2022/03/11 10:17:54;;;;;;;3.80;2.97;;;14.40;64.40;;;;;;5007031;28;20372;-77
2022/03/11 10:20:20;;;;;;;4.57;2.72;;;14.40;64.40;;;;;;5012067;28;20034;-80
2022/03/11 10:22:47;;;;;;;4.25;3.05;;;14.40;64.50;;;;;;5045442;28;20061;-78
2022/03/11 10:25:19;;;;;;;2.83;2.58;;;14.40;64.60;;;;;;5032210;28;20044;-80
2022/03/11 10:28:05;;;;;;;3.03;2.67;;;14.40;64.60;;;;;;5013737;28;20159;-80
2022/03/11 10:30:33;;;;;;;4.13;2.53;;;14.40;64.70;;;;;;5045518;28;20033;-79
2022/03/11 10:33:02;;;;;;;3.33;3.03;;;14.40;64.70;;;;;;5028373;28;20021;-77
2022/03/11 10:35:47;;;;;;;4.13;2.45;;;14.30;64.50;;;;;;5013245;28;20041;-78
2022/03/11 10:38:15;;;;;;;3.35;2.25;;;14.30;64.60;;;;;;5030372;28;20168;-79
2022/03/11 10:40:51;;;;;;;4.47;3.08;;;14.30;64.60;;;;;;5030313;28;20029;-78
2022/03/11 10:43:22;;;;;;;3.35;3.05;;;14.30;64.70;;;;;;5044277;28;20060;-82
2022/03/11 10:45:52;;;;;;;4.65;2.72;;;14.30;64.60;;;;;;5029812;28;20026;-83
2022/03/11 10:48:40;;;;;;;4.35;2.38;;;14.30;64.60;;;;;;5029842;28;20126;-79
2022/03/11 10:51:13;;;;;;;3.67;3.38;;;14.40;64.80;;;;;;5029918;28;20480;-78
2022/03/11 10:53:40;;;;;;;2.95;2.65;;;14.40;64.70;;;;;;5009467;28;20029;-78
2022/03/11 10:56:07;;;;;;;2.85;2.40;;;14.40;64.70;;;;;;5010973;28;20034;-80
2022/03/11 10:58:36;;;;;;;2.97;2.67;;;14.40;64.60;;;;;;5027539;28;20049;-78
2022/03/11 11:01:02;;;;;;;3.40;2.90;;;14.40;64.60;;;;;;5029932;28;20079;-81
2022/03/11 11:03:29;;;;;;;2.58;2.22;;;14.50;64.70;;;;;;5011624;28;20502;-78
2022/03/11 11:05:55;;;;;;;2.95;2.63;;;14.40;64.50;;;;;;5029285;28;20056;-78
2022/03/11 11:08:22;;;;;;;2.60;2.35;;;14.50;64.70;;;;;;5028674;28;20052;-78
2022/03/11 11:10:49;;;;;;;3.63;2.20;;;14.50;64.70;;;;;;5033366;28;20025;-77
2022/03/11 11:13:15;;;;;;;3.45;2.60;;;14.50;64.70;;;;;;5030934;28;20403;-78
2022/03/11 11:15:42;;;;;;;4.18;2.58;;;14.50;64.80;;;;;;5048723;28;20025;-76
2022/03/11 11:18:12;;;;;;;3.15;2.88;;;14.50;64.80;;;;;;5043527;28;20048;-77
2022/03/11 11:20:47;;;;;;;3.80;3.45;;;14.50;64.70;;;;;;5029269;28;20515;-81
2022/03/11 11:23:15;;;;;;;2.78;2.30;;;14.50;64.70;;;;;;5028305;28;20025;-78
2022/03/11 11:25:43;;;;;;;2.50;2.30;;;14.50;65.20;;;;;;5028525;28;20530;-77
2022/03/11 11:28:11;;;;;;;3.45;2.47;;;14.50;64.70;;;;;;5028431;28;20217;-77
2022/03/11 11:30:39;;;;;;;3.08;2.67;;;14.60;64.90;;;;;;5028197;28;20035;-77
2022/03/11 11:33:06;;;;;;;2.72;2.30;;;14.60;64.80;;;;;;5010835;28;20557;-77
2022/03/11 11:35:39;;;;;;;3.00;2.60;;;14.60;64.90;;;;;;5028436;28;20072;-76
2022/03/11 11:38:27;;;;;;;3.95;2.90;;;14.60;64.90;;;;;;5044222;28;20056;-78
2022/03/11 11:40:54;;;;;;;3.65;2.85;;;14.60;64.90;;;;;;5030624;28;20034;-77
2022/03/11 11:43:29;;;;;;;2.85;2.35;;;14.50;64.70;;;;;;5046395;28;20045;-79
2022/03/11 11:46:04;;;;;;;2.90;2.22;;;14.50;64.80;;;;;;5013111;28;20040;-77
2022/03/11 11:48:32;;;;;;;3.30;2.65;;;14.50;64.90;;;;;;5030780;28;20037;-77
2022/03/11 11:51:04;;;;;;;3.85;2.58;;;14.50;64.90;;;;;;5011994;28;20399;-77
2022/03/11 11:53:42;;;;;;;3.00;2.70;;;14.50;64.90;;;;;;5029868;28;20124;-77
2022/03/11 11:56:28;;;;;;;2.88;2.50;;;14.50;64.90;;;;;;5029881;28;20144;-79
2022/03/11 11:58:58;;;;;;;2.97;2.63;;;14.60;65.00;;;;;;5028599;28;20041;-81
2022/03/11 12:01:45;;;;;;;2.40;1.95;;;14.60;65.00;;;;;;5030918;28;20040;-80
2022/03/11 12:04:39;;;;;;;2.65;2.35;;;14.70;65.40;;;;;;5039915;28;20028;-77
2022/03/11 12:07:12;;;;;;;2.17;1.80;;;14.80;65.80;;;;;;5040458;28;20072;-78
2022/03/11 12:09:42;;;;;;;2.15;1.85;;;14.90;65.70;;;;;;5039592;28;20037;-80
2022/03/11 12:12:27;;;;;;;2.70;1.80;;;14.90;65.60;;;;;;5044072;28;20033;-78
2022/03/11 12:15:00;;;;;;;3.45;1.80;;;15.00;65.80;;;;;;5031111;28;20052;-79
2022/03/11 12:17:52;;;;;;;2.00;1.80;;;15.00;65.70;;;;;;5057244;28;20048;-79
2022/03/11 12:20:24;;;;;;;2.20;1.95;;;15.00;65.60;;;;;;5021810;28;20042;-79
2022/03/11 12:22:54;;;;;;;2.80;1.77;;;15.10;65.80;;;;;;5020609;28;20096;-78
2022/03/11 12:25:22;;;;;;;2.80;2.42;;;15.00;65.60;;;;;;5012027;28;20068;-79
2022/03/11 12:28:04;;;;;;;2.70;1.80;;;15.10;65.80;;;;;;5010047;28;20034;-79
2022/03/11 12:30:32;;;;;;;4.37;2.13;;;15.00;65.70;;;;;;5028034;28;20041;-78
2022/03/11 12:33:04;;;;;;;2.97;2.08;;;15.00;65.70;;;;;;5027891;28;20037;-79
2022/03/11 12:35:30;;;;;;;3.08;1.52;;;15.00;65.70;;;;;;5031426;28;20050;-78
2022/03/11 12:37:57;;;;;;;2.25;1.73;;;15.00;65.80;;;;;;5014221;28;20484;-79
2022/03/11 12:40:24;;;;;;;2.42;2.05;;;14.90;65.70;;;;;;5031947;28;20033;-81
2022/03/11 12:42:58;;;;;;;2.80;2.10;;;15.00;65.90;;;;;;5032024;28;20049;-79
2022/03/11 12:45:32;;;;;;;4.90;2.50;;;14.90;65.70;;;;;;5014309;28;20026;-80
2022/03/11 12:47:58;;;;;;;3.00;2.13;;;15.00;65.90;;;;;;5031633;28;20033;-80
2022/03/11 12:50:24;;;;;;;2.95;2.75;;;14.90;65.70;;;;;;5014248;28;20478;-80
2022/03/11 12:52:56;;;;;;;2.35;1.90;;;15.00;65.90;;;;;;5031832;28;20392;-80
2022/03/11 12:55:25;;;;;;;2.33;1.90;;;15.00;66.40;;;;;;5046949;28;20029;-80
2022/03/11 12:57:52;;;;;;;2.75;1.90;;;15.00;65.80;;;;;;5014228;28;20052;-79
2022/03/11 13:00:20;;;;;;;2.65;2.20;;;15.10;65.80;;;;;;5031514;28;20044;-81
2022/03/11 13:02:51;;;;;;;2.20;1.92;;;15.20;65.80;;;;;;5025803;28;20550;-78
2022/03/11 13:05:18;;;;;;;2.17;1.95;;;15.20;65.70;;;;;;5031295;28;20033;-78
2022/03/11 13:07:44;;;;;;;2.53;2.20;;;15.30;65.70;;;;;;5031456;28;20040;-80
2022/03/11 13:10:23;;;;;;;2.75;1.80;;;15.30;65.60;;;;;;5028957;28;20443;-79
2022/03/11 13:12:54;;;;;;;2.75;2.00;;;15.40;65.60;;;;;;5034258;28;20064;-79
2022/03/11 13:15:26;;;;;;;2.20;1.70;;;15.50;65.60;;;;;;5012389;28;20038;-78
2022/03/11 13:17:53;;;;;;;3.58;2.20;;;15.50;65.50;;;;;;5028546;28;20120;-80
2022/03/11 13:20:47;;;;;;;2.60;2.35;;;15.60;65.50;;;;;;4997229;28;20084;-78
2022/03/11 13:23:15;;;;;;;2.85;2.63;;;15.70;65.60;;;;;;5013302;28;20030;-80
2022/03/11 13:25:54;;;;;;;2.97;1.90;;;15.70;65.50;;;;;;5031042;28;20097;-79
2022/03/11 13:28:22;;;;;;;2.03;1.77;;;15.70;65.30;;;;;;5013306;28;20030;-78
2022/03/11 13:30:49;;;;;;;2.35;1.67;;;15.80;65.40;;;;;;5013132;28;20113;-80
2022/03/11 13:33:23;;;;;;;2.55;2.13;;;15.80;65.30;;;;;;5030661;28;20029;-79
2022/03/11 13:36:04;;;;;;;3.25;1.90;;;15.90;65.50;;;;;;4996648;28;20144;-78
2022/03/11 13:38:57;;;;;;;2.10;1.63;;;15.90;65.40;;;;;;5030268;28;20042;-78
2022/03/11 13:41:29;;;;;;;2.80;1.80;;;16.00;65.40;;;;;;5011468;28;20029;-78
2022/03/11 13:44:18;;;;;;;3.20;1.70;;;16.10;65.40;;;;;;5030386;28;20045;-78
2022/03/11 13:47:18;;;;;;;4.03;2.30;;;16.20;65.50;;;;;;4995753;28;20038;-79
2022/03/11 13:49:53;;;;;;;2.97;1.83;;;16.30;65.40;;;;;;5045366;28;20125;-79
2022/03/11 13:52:25;;;;;;;2.58;1.80;;;16.40;65.40;;;;;;5030159;28;20253;-79
2022/03/11 13:55:07;;;;;;;4.45;3.03;;;16.40;65.30;;;;;;5045635;28;20056;-78
2022/03/11 13:57:37;;;;;;;2.95;1.88;;;16.40;65.30;;;;;;5012840;28;20030;-79
2022/03/11 14:00:36;;;;;;;2.78;2.05;;;16.40;65.30;;;;;;5049657;28;20272;-79
2022/03/11 14:03:12;;;;;;;2.85;1.80;;;16.40;65.10;;;;;;5040566;28;20495;-80
2022/03/11 14:05:44;;;;;;;2.05;1.75;;;16.40;65.10;;;;;;5032067;28;20079;-82
2022/03/11 14:08:12;;;;;;;2.15;1.50;;;16.40;65.10;;;;;;5045163;28;20026;-81
2022/03/11 14:10:46;;;;;;;3.30;1.75;;;16.40;65.10;;;;;;5012234;28;20029;-79
2022/03/11 14:13:15;;;;;;;1.92;1.83;;;16.40;65.10;;;;;;5029842;28;20029;-80
2022/03/11 14:15:44;;;;;;;3.30;1.70;;;16.40;65.10;;;;;;5030537;28;20025;-80
2022/03/11 14:18:13;;;;;;;2.58;1.58;;;16.40;65.20;;;;;;5045407;28;20476;-79
2022/03/11 14:20:41;;;;;;;2.33;1.83;;;16.30;65.70;;;;;;5030438;28;20041;-79